• Join FlightAware (Why Join?)
  • Login
  • US Flag 
12:00AM EDT


 

Airport Tracker/Info


-or-


 

Live Flight TrackerFlight Track Log ✈ ADR727 ✈ 02-Oct-2013 ✈ LATI / TIA - LJLJ / LJU

Flight Track Log - Related Links

Times and Time Zones

All times are in EDT time to prevent confusion due to time zone crossing. See the ADR727 flight status page for this flight to view local times or setup timezone preferences in your user account.

Time Position Orientation Groundspeed Altitude Reporting Facility
EDT Latitude Longitude Course Direction KTS MPH feet Rate Location/Type
11:05PM 41.6960 19.4415 324° Northwest  Level Estimated
11:06PM 41.7662 19.3714 323° Northwest  Level Estimated
11:07PM 41.8364 19.3011 323° Northwest  Level Estimated
11:08PM 41.9065 19.2306 323° Northwest  Level Estimated
11:09PM 41.9766 19.1600 323° Northwest  Level Estimated
11:10PM 42.0466 19.0893 323° Northwest  Level Estimated
11:11PM 42.1166 19.0184 323° Northwest  Level Estimated
11:12PM 42.1865 18.9473 323° Northwest  Level Estimated
11:13PM 42.2564 18.8761 323° Northwest  Level Estimated
11:14PM 42.3263 18.8047 323° Northwest  Level Estimated
11:15PM 42.3961 18.7331 323° Northwest  Level Estimated
11:16PM 42.4659 18.6614 323° Northwest  Level Estimated
11:17PM 42.5356 18.5895 323° Northwest  Level Estimated
11:18PM 42.6053 18.5175 323° Northwest  Level Estimated
11:19PM 42.6749 18.4453 323° Northwest  Level Estimated
11:20PM 42.7445 18.3730 323° Northwest  Level Estimated
11:21PM 42.8140 18.3004 323° Northwest  Level Estimated
11:22PM 42.8835 18.2278 323° Northwest  Level Estimated
11:23PM 42.9530 18.1549 322° Northwest  Level Estimated
11:24PM 43.0224 18.0819 322° Northwest  Level Estimated
11:25PM 43.0917 18.0088 322° Northwest  Level Estimated
11:26PM 43.1610 17.9354 322° Northwest  Level Estimated
11:27PM 43.2303 17.8619 322° Northwest  Level Estimated
11:28PM 43.2995 17.7882 322° Northwest  Level Estimated
11:29PM 43.3687 17.7144 322° Northwest  Level Estimated
11:30PM 43.4378 17.6404 322° Northwest  Level Estimated
11:31PM 43.5069 17.5662 322° Northwest  Level Estimated
11:32PM 43.5759 17.4919 322° Northwest  Level Estimated
11:33PM 43.6449 17.4174 322° Northwest  Level Estimated
11:34PM 43.7138 17.3427 322° Northwest  Level Estimated
11:35PM 43.7827 17.2678 322° Northwest  Level Estimated
11:36PM 43.8515 17.1928 322° Northwest  Level Estimated
11:37PM 43.9203 17.1176 322° Northwest  Level Estimated
11:38PM 43.9891 17.0422 322° Northwest  Level Estimated
11:39PM 44.0577 16.9667 322° Northwest  Level Estimated
11:40PM 44.1264 16.8909 322° Northwest  Level Estimated
11:41PM 44.1949 16.8150 322° Northwest  Level Estimated
11:42PM 44.2635 16.7390 322° Northwest  Level Estimated
11:43PM 44.3320 16.6627 321° Northwest  Level Estimated
11:44PM 44.4004 16.5863 321° Northwest  Level Estimated
11:45PM 44.4688 16.5096 321° Northwest  Level Estimated
11:46PM 44.5371 16.4328 321° Northwest  Level Estimated
11:47PM 44.6054 16.3559 321° Northwest  Level Estimated
11:48PM 44.6736 16.2787 321° Northwest  Level Estimated
11:49PM 44.7418 16.2014 321° Northwest  Level Estimated
11:50PM 44.8099 16.1238 321° Northwest  Level Estimated
11:51PM 44.8780 16.0461 321° Northwest  Level Estimated
11:52PM 44.9460 15.9683 321° Northwest  Level Estimated
11:53PM 45.0139 15.8902 321° Northwest  Level Estimated
11:54PM 45.0818 15.8119 321° Northwest  Level Estimated
11:55PM 45.1497 15.7335 321° Northwest  Level Estimated
11:56PM 45.2175 15.6549 321° Northwest  Level Estimated
11:57PM 45.2853 15.5760 321° Northwest  Level Estimated
11:58PM 45.3530 15.4970 321° Northwest  Level Estimated
11:59PM 45.4206 15.4178 321° Northwest  Level Estimated
12:00AM 45.4882 15.3384 321° Northwest  Level Estimated
12:01AM 45.5557 15.2589 320° Northwest  Level Estimated
12:02AM 45.6232 15.1791 320° Northwest  Level Estimated
12:03AM 45.6906 15.0991 320° Northwest  Level Estimated
12:04AM 45.7580 15.0190 320° Northwest  Level Estimated
12:05AM 45.8253 14.9386 320° Northwest  Level Estimated
12:06AM 45.8925 14.8581 320° Northwest  Level Estimated
12:07AM 45.9597 14.7773 320° Northwest  Level Estimated
12:08AM 46.0269 14.6964 320° Northwest  Level Estimated
12:09AM 46.0939 14.6153 320° Northwest  Level Estimated
12:10AM 46.1610 14.5340 320° Northwest  Level Estimated
12:11AM 46.2237 14.4576 320° Northwest  Level Estimated
12:12AM 46.2237 14.4576 170° South  Level Estimated
12:13AM 46.2237 14.4576 170° South  Level Estimated
12:14AM 46.2237 14.4576 170° South  Level Estimated
12:15AM 46.2237 14.4576 170° South  Level Estimated
12:16AM 46.2237 14.4576 170° South  Level Estimated
12:17AM 46.2237 14.4576 170° South  Level Estimated
12:18AM 46.2237 14.4576 170° South  Level Estimated
12:19AM 46.2237 14.4576 170° South  Level Estimated